Asiatic King — 9V3931 — position and weather

sailwx.info

Track history (hours):
 
Tides and Currents Weather Stations Pressure Air Temp Water Temp Dewpoint Dewpoint Depression Visibility Wind Speed Wind Dir Waves Ship Positions

Asiatic King

Last reported at 2018-Feb-20 14:59 UTC. Time now 2018-Feb-20 15:17 UTC.
Position N 37°55' E 015°42'.

Length 148 m; draft 7.5 m.

Type: Ship. MMSI: 565584000.

Date/timePositionNaut miles runAvg speedWind from/ knotsBaromVisibWave heightAir tempDewpointWater temp
2018-Feb-20 14:59N 37°55' E 015°42'817.1
2018-Feb-20 14:30N 37°52' E 015°51'  
2018-Feb-18 02:46N 32°57' E 034°30'312.0
2018-Feb-18 02:29N 32°57' E 034°34'611.9
2018-Feb-18 02:00N 32°56' E 034°41'611.7
2018-Feb-18 01:29N 32°54' E 034°48'611.6
2018-Feb-18 00:59N 32°53' E 034°55'4 0.1
2018-Feb-16 18:51N 32°52' E 034°59'1 3.4
2018-Feb-16 18:29N 32°52' E 034°58'0 0.9
2018-Feb-16 18:00N 32°53' E 034°58'4 7.5
2018-Feb-16 17:30N 32°53' E 034°53'3 6.9
2018-Feb-16 17:00N 32°51' E 034°50'4 8.3
2018-Feb-16 16:30N 32°47' E 034°48'814.9
2018-Feb-16 16:00N 32°40' E 034°46'917.4
2018-Feb-16 15:30N 32°31' E 034°43'816.6
2018-Feb-16 15:00N 32°23' E 034°40'815.5
2018-Feb-16 14:30N 32°16' E 034°38'815.7
2018-Feb-16 14:00N 32°08' E 034°35'19 1.1
2018-Feb-15 20:51N 31°50' E 034°39'0 0.0
2018-Feb-15 17:01N 31°50' E 034°39'0 0.0
2018-Feb-15 16:58N 31°50' E 034°39'1 0.2
2018-Feb-15 09:07N 31°51' E 034°38'  
2018-Feb-12 09:09N 37°47' E 016°05'217.3
2018-Feb-12 09:00N 37°48' E 016°02'917.1
2018-Feb-12 08:30N 37°51' E 015°52'917.3
2018-Feb-12 08:00N 37°55' E 015°42'815.7
2018-Feb-12 07:29N 38°01' E 015°36'817.6
2018-Feb-12 07:00N 38°09' E 015°35'1011.8
2018-Feb-12 06:09N 38°18' E 015°40'212.7
2018-Feb-12 06:00N 38°20' E 015°39'712.5
2018-Feb-12 05:28N 38°26' E 015°35'612.6
2018-Feb-12 04:58N 38°31' E 015°32'612.8
2018-Feb-12 04:28N 38°37' E 015°28'4812.1
2018-Feb-12 00:28N 39°21' E 015°02'6613.0
2018-Feb-11 19:22N 40°21' E 014°25'612.4
2018-Feb-11 18:55N 40°26' E 014°22'1012.6
2018-Feb-11 18:08N 40°35' E 014°17'213.5
2018-Feb-11 17:59N 40°37' E 014°17'613.1
2018-Feb-11 17:30N 40°43' E 014°18'611.8
2018-Feb-11 17:00N 40°49' E 014°18'  
Track history (hours):
 
Tides and Currents Weather Stations Pressure Air Temp Water Temp Dewpoint Dewpoint Depression Visibility Wind Speed Wind Dir Waves Ship Positions

Asiatic King

Last reported at 2018-Feb-20 14:59 UTC. Time now 2018-Feb-20 15:17 UTC.
Position N 37°55' E 015°42'.

Length 148 m; draft 7.5 m.

Type: Ship. MMSI: 565584000.

Date/timePositionNaut miles runAvg speedWind from/ knotsBaromVisibWave heightAir tempDewpointWater temp
2018-Feb-20 14:59N 37°55' E 015°42'817.1
2018-Feb-20 14:30N 37°52' E 015°51'  
2018-Feb-18 02:46N 32°57' E 034°30'312.0
2018-Feb-18 02:29N 32°57' E 034°34'611.9
2018-Feb-18 02:00N 32°56' E 034°41'611.7
2018-Feb-18 01:29N 32°54' E 034°48'611.6
2018-Feb-18 00:59N 32°53' E 034°55'4 0.1
2018-Feb-16 18:51N 32°52' E 034°59'1 3.4
2018-Feb-16 18:29N 32°52' E 034°58'0 0.9
2018-Feb-16 18:00N 32°53' E 034°58'4 7.5
2018-Feb-16 17:30N 32°53' E 034°53'3 6.9
2018-Feb-16 17:00N 32°51' E 034°50'4 8.3
2018-Feb-16 16:30N 32°47' E 034°48'814.9
2018-Feb-16 16:00N 32°40' E 034°46'917.4
2018-Feb-16 15:30N 32°31' E 034°43'816.6
2018-Feb-16 15:00N 32°23' E 034°40'815.5
2018-Feb-16 14:30N 32°16' E 034°38'815.7
2018-Feb-16 14:00N 32°08' E 034°35'19 1.1
2018-Feb-15 20:51N 31°50' E 034°39'0 0.0
2018-Feb-15 17:01N 31°50' E 034°39'0 0.0
2018-Feb-15 16:58N 31°50' E 034°39'1 0.2
2018-Feb-15 09:07N 31°51' E 034°38'  
2018-Feb-12 09:09N 37°47' E 016°05'217.3
2018-Feb-12 09:00N 37°48' E 016°02'917.1
2018-Feb-12 08:30N 37°51' E 015°52'917.3
2018-Feb-12 08:00N 37°55' E 015°42'815.7
2018-Feb-12 07:29N 38°01' E 015°36'817.6
2018-Feb-12 07:00N 38°09' E 015°35'1011.8
2018-Feb-12 06:09N 38°18' E 015°40'212.7
2018-Feb-12 06:00N 38°20' E 015°39'712.5
2018-Feb-12 05:28N 38°26' E 015°35'612.6
2018-Feb-12 04:58N 38°31' E 015°32'612.8
2018-Feb-12 04:28N 38°37' E 015°28'4812.1
2018-Feb-12 00:28N 39°21' E 015°02'6613.0
2018-Feb-11 19:22N 40°21' E 014°25'612.4
2018-Feb-11 18:55N 40°26' E 014°22'1012.6
2018-Feb-11 18:08N 40°35' E 014°17'213.5
2018-Feb-11 17:59N 40°37' E 014°17'613.1
2018-Feb-11 17:30N 40°43' E 014°18'611.8
2018-Feb-11 17:00N 40°49' E 014°18'  

Dump ship's entire track history